Time;durP1;ratioP1;P1;durP2;ratioP2;P2;SDS_P1;SDS_P2;PMS_P1;PMS_P2;Temp;Humidity;BMP_temperature;BMP_pressure;BME280_temperature;BME280_humidity;BME280_pressure;Samples;Min_cycle;Max_cycle;Signal;HPM_P1;HPM_P2
2021/01/28 00:03:14;;;;;;;12.03;6.08;;;;;;;0.01;71.53;99382.81;3500639;81;30421;-65
2021/01/28 00:08:17;;;;;;;11.48;6.72;;;;;;;-0.07;70.70;99375.85;3587379;81;30662;-63
2021/01/28 00:13:20;;;;;;;11.38;5.90;;;;;;;-0.09;72.06;99376.52;3575042;81;30130;-66
2021/01/28 00:18:22;;;;;;;13.50;7.70;;;;;;;-0.14;72.08;99373.60;3573957;81;30922;-63
2021/01/28 00:23:25;;;;;;;17.52;6.55;;;;;;;-0.16;71.04;99368.22;3575215;81;29967;-65
2021/01/28 00:28:29;;;;;;;12.03;7.28;;;;;;;-0.11;72.71;99376.37;3572745;81;30109;-65
2021/01/28 00:33:32;;;;;;;11.80;6.35;;;;;;;-0.13;71.57;99361.32;3573311;81;27487;-64
2021/01/28 00:38:39;;;;;;;11.43;5.87;;;;;;;-0.16;71.36;99372.14;3570976;81;26419;-64
2021/01/28 00:43:42;;;;;;;12.00;6.60;;;;;;;-0.23;72.15;99362.85;3551283;81;30219;-63
2021/01/28 00:48:47;;;;;;;17.23;7.57;;;;;;;-0.30;71.03;99357.17;3570618;81;26533;-64
2021/01/28 00:53:49;;;;;;;15.70;7.93;;;;;;;-0.31;70.83;99356.38;3566147;81;26031;-68
2021/01/28 00:58:51;;;;;;;11.70;6.10;;;;;;;-0.29;71.32;99349.63;3533942;82;27219;-67
2021/01/28 01:03:54;;;;;;;15.98;7.05;;;;;;;-0.37;71.38;99343.48;3529622;82;26347;-64
2021/01/28 01:08:57;;;;;;;11.25;6.75;;;;;;;-0.44;74.01;99337.31;3532298;82;28844;-65
2021/01/28 01:14:00;;;;;;;13.10;6.72;;;;;;;-0.48;72.80;99330.78;3539429;81;29318;-64
2021/01/28 01:19:03;;;;;;;16.70;5.62;;;;;;;-0.48;74.06;99326.04;3536722;82;29342;-65
2021/01/28 01:24:08;;;;;;;7.60;5.70;;;;;;;-0.60;74.43;99322.18;3533484;82;26408;-63
2021/01/28 01:29:11;;;;;;;16.87;6.40;;;;;;;-0.58;74.53;99324.13;3531761;82;29011;-67
2021/01/28 01:34:16;;;;;;;10.98;6.05;;;;;;;-0.58;74.20;99322.33;3529976;81;25929;-65
2021/01/28 01:39:20;;;;;;;11.78;6.95;;;;;;;-0.63;72.67;99309.47;3532341;82;30187;-67
2021/01/28 01:44:22;;;;;;;15.03;7.23;;;;;;;-0.73;72.58;99293.97;3539145;82;25955;-63
2021/01/28 01:49:25;;;;;;;15.27;7.70;;;;;;;-0.78;73.09;99286.64;3538728;81;26097;-67
2021/01/28 01:54:35;;;;;;;13.93;8.50;;;;;;;-0.81;73.42;99280.44;3538856;81;26909;-64
2021/01/28 02:00:01;;;;;;;18.43;10.17;;;;;;;-0.82;72.55;99279.30;3555786;81;26333;-63
2021/01/28 02:05:12;;;;;;;17.62;8.20;;;;;;;-0.84;72.83;99268.19;3567346;81;28384;-63
2021/01/28 02:10:24;;;;;;;18.83;9.30;;;;;;;-0.83;72.98;99260.66;3575714;80;34792;-63
2021/01/28 02:15:28;;;;;;;22.75;9.15;;;;;;;-0.90;72.92;99258.41;3587673;80;29998;-65
2021/01/28 02:21:06;;;;;;;19.45;11.40;;;;;;;-0.98;71.19;99247.52;3581553;80;30013;-63
2021/01/28 02:26:19;;;;;;;16.20;9.63;;;;;;;-0.94;72.15;99247.50;3682141;77;34730;-63
2021/01/28 02:31:25;;;;;;;23.52;11.20;;;;;;;-1.07;73.37;99233.66;3647632;78;30141;-63
2021/01/28 02:36:44;;;;;;;23.80;11.03;;;;;;;-1.09;73.07;99234.82;3689538;77;30831;-63
2021/01/28 02:42:07;;;;;;;25.40;10.88;;;;;;;-1.03;72.98;99231.52;3705505;79;30152;-64
2021/01/28 02:47:19;;;;;;;24.13;13.00;;;;;;;-0.93;72.38;99233.44;3554087;80;35174;-64
2021/01/28 02:52:22;;;;;;;17.98;10.08;;;;;;;-0.87;72.45;99227.97;3509392;82;30461;-64
2021/01/28 02:57:26;;;;;;;21.23;11.28;;;;;;;-0.82;71.25;99226.47;3527468;82;30262;-65
2021/01/28 03:02:30;;;;;;;26.90;10.63;;;;;;;-0.73;71.07;99222.00;3520160;82;26651;-67
2021/01/28 03:07:33;;;;;;;20.43;12.63;;;;;;;-0.73;70.72;99210.22;3502197;82;26228;-64
2021/01/28 03:12:36;;;;;;;23.98;12.60;;;;;;;-0.69;70.34;99205.78;3525120;82;27845;-64
2021/01/28 03:17:40;;;;;;;19.90;11.67;;;;;;;-0.65;70.96;99201.02;3527153;82;25883;-63
2021/01/28 03:22:44;;;;;;;27.62;13.15;;;;;;;-0.66;70.69;99191.53;3522503;82;26428;-64
2021/01/28 03:27:48;;;;;;;18.75;10.53;;;;;;;-0.63;70.04;99191.18;3532941;82;29919;-64
2021/01/28 03:32:51;;;;;;;21.17;12.40;;;;;;;-0.59;70.64;99182.45;3516916;82;29278;-64
2021/01/28 03:37:54;;;;;;;21.93;11.80;;;;;;;-0.55;70.05;99176.69;3502468;81;34936;-65
2021/01/28 03:42:57;;;;;;;27.80;12.98;;;;;;;-0.56;70.21;99171.14;3495371;82;26227;-64
2021/01/28 03:48:01;;;;;;;30.93;14.33;;;;;;;-0.56;69.86;99170.33;3489368;83;26060;-63
2021/01/28 03:53:06;;;;;;;28.20;11.93;;;;;;;-0.54;70.33;99157.88;3406281;86;27011;-65
2021/01/28 03:58:09;;;;;;;23.70;11.65;;;;;;;-0.59;69.30;99149.73;3448195;84;26398;-65
2021/01/28 04:03:13;;;;;;;21.35;11.05;;;;;;;-0.67;69.34;99138.05;3458344;84;28763;-64
2021/01/28 04:08:16;;;;;;;17.90;12.73;;;;;;;-0.81;70.52;99144.86;3458999;84;25915;-64
2021/01/28 04:13:19;;;;;;;28.97;14.40;;;;;;;-0.90;71.03;99140.67;3458956;84;25891;-63
2021/01/28 04:18:22;;;;;;;23.38;13.70;;;;;;;-0.95;71.15;99126.02;3459159;84;28756;-64
2021/01/28 04:23:25;;;;;;;23.85;13.83;;;;;;;-0.96;71.67;99114.73;3458844;84;29263;-64
2021/01/28 04:28:26;;;;;;;37.43;15.83;;;;;;;-1.03;71.06;99098.92;3456960;84;25931;-64
2021/01/28 04:33:28;;;;;;;30.47;17.73;;;;;;;-1.08;71.41;99097.33;3457311;84;26713;-64
2021/01/28 04:38:31;;;;;;;34.90;15.03;;;;;;;-1.17;72.67;99088.41;3456804;84;25924;-63
2021/01/28 04:43:34;;;;;;;29.85;15.10;;;;;;;-1.22;72.40;99088.14;3459829;84;27160;-64
2021/01/28 04:48:37;;;;;;;30.97;15.53;;;;;;;-1.27;72.43;99082.12;3423275;85;26613;-64
2021/01/28 04:53:58;;;;;;;32.05;15.48;;;;;;;-1.36;72.66;99077.44;3422102;85;28946;-64
2021/01/28 04:59:09;;;;;;;24.43;15.25;;;;;;;-1.38;73.67;99070.75;3423008;85;29044;-63
2021/01/28 05:04:15;;;;;;;30.57;13.48;;;;;;;-1.51;73.38;99049.11;3458078;84;27589;-63
2021/01/28 05:09:19;;;;;;;23.83;14.85;;;;;;;-1.54;74.59;99043.44;3457929;84;27359;-63
2021/01/28 05:14:31;;;;;;;30.10;16.47;;;;;;;-1.55;73.99;99043.94;3458272;84;26093;-62
2021/01/28 05:19:39;;;;;;;25.70;14.40;;;;;;;-1.61;73.53;99035.47;3457796;83;26174;-63
2021/01/28 05:24:53;;;;;;;34.70;19.30;;;;;;;-1.63;74.33;99043.17;3457954;83;26042;-63
2021/01/28 05:30:01;;;;;;;38.30;16.35;;;;;;;-1.58;74.27;99039.05;3398301;85;27395;-63
2021/01/28 05:35:29;;;;;;;32.03;16.70;;;;;;;-1.59;74.50;99028.77;3457844;85;26016;-63
2021/01/28 05:40:33;;;;;;;33.85;19.15;;;;;;;-1.74;74.65;99019.05;3457675;83;25956;-64
2021/01/28 05:45:38;;;;;;;36.50;18.33;;;;;;;-1.78;74.75;99007.31;3451730;84;26477;-63
2021/01/28 05:50:42;;;;;;;28.92;19.10;;;;;;;-1.83;75.11;98995.27;3524457;82;26491;-66
2021/01/28 05:55:47;;;;;;;37.13;21.05;;;;;;;-1.89;75.66;98977.70;3523971;82;29219;-63
2021/01/28 06:01:04;;;;;;;32.27;18.37;;;;;;;-1.95;75.77;98965.81;3535911;82;25923;-63
2021/01/28 06:06:35;;;;;;;37.83;16.17;;;;;;;-1.99;75.52;98955.39;3467496;83;26914;-63
2021/01/28 06:12:03;;;;;;;34.83;18.50;;;;;;;-2.01;74.93;98953.45;3514881;81;26836;-63
2021/01/28 06:17:50;;;;;;;37.10;17.00;;;;;;;-1.98;75.28;98953.91;3508448;81;25807;-63
2021/01/28 06:23:34;;;;;;;37.35;18.73;;;;;;;-2.00;74.74;98936.30;3521820;81;28317;-64
2021/01/28 06:28:47;;;;;;;32.37;16.53;;;;;;;-1.92;74.74;98929.72;3523794;81;25890;-65
2021/01/28 06:34:05;;;;;;;33.23;17.40;;;;;;;-1.89;74.17;98920.23;3456327;82;26494;-65
2021/01/28 06:39:18;;;;;;;34.60;19.10;;;;;;;-1.93;74.67;98905.08;3518051;82;29630;-66
2021/01/28 06:44:34;;;;;;;23.87;15.83;;;;;;;-1.88;74.25;98919.24;3427749;83;26074;-64
2021/01/28 06:50:06;;;;;;;26.77;15.90;;;;;;;-1.84;74.31;98909.27;3422525;84;34953;-64
2021/01/28 06:55:35;;;;;;;24.67;16.17;;;;;;;-1.73;74.86;98907.02;3430929;84;26009;-63
2021/01/28 07:00:47;;;;;;;;;;;;;;;-1.60;74.07;98899.09;3433581;84;25936;-63
2021/01/28 07:06:15;;;;;;;26.93;13.80;;;;;;;-1.51;72.67;98896.70;3475499;83;25968;-63
2021/01/28 07:11:38;;;;;;;33.95;17.90;;;;;;;-1.43;72.60;98894.83;3443237;84;25910;-62
2021/01/28 07:17:22;;;;;;;29.20;16.63;;;;;;;-1.28;72.30;98897.97;3397317;84;26680;-62
2021/01/28 07:22:32;;;;;;;29.12;17.35;;;;;;;-1.10;71.15;98888.77;3390328;85;29713;-62
2021/01/28 07:28:06;;;;;;;26.20;16.80;;;;;;;-0.94;70.25;98883.86;3368557;85;30523;-60
2021/01/28 07:33:30;;;;;;;21.62;13.50;;;;;;;-0.82;69.00;98867.98;3320717;85;29925;-62
2021/01/28 07:38:43;;;;;;;7.10;4.33;;;;;;;-0.75;68.49;98857.61;3339226;85;25931;-63
2021/01/28 07:43:52;;;;;;;23.60;13.88;;;;;;;-0.80;68.23;98859.46;3306667;87;28346;-66
2021/01/28 07:49:17;;;;;;;23.12;13.30;;;;;;;-0.74;67.20;98841.72;3359661;86;28397;-62
2021/01/28 07:54:36;;;;;;;36.13;15.50;;;;;;;-0.70;68.29;98847.41;3375565;86;25837;-61
2021/01/28 07:59:49;;;;;;;19.92;11.78;;;;;;;-0.63;66.94;98834.40;3366292;87;29159;-63
2021/01/28 08:05:12;;;;;;;16.50;9.93;;;;;;;-0.58;66.37;98824.16;3349355;86;28430;-62
2021/01/28 08:10:31;;;;;;;38.58;17.67;;;;;;;-0.54;66.56;98810.52;3352041;86;30181;-63
2021/01/28 08:15:55;;;;;;;35.08;17.17;;;;;;;-0.40;66.18;98808.86;3253201;86;28258;-62
2021/01/28 08:21:20;;;;;;;34.60;19.20;;;;;;;-0.37;65.62;98797.52;3384853;84;28449;-64
2021/01/28 08:26:34;;;;;;;28.60;18.20;;;;;;;-0.26;64.89;98797.98;3389688;84;25840;-63
2021/01/28 08:31:52;;;;;;;36.30;17.23;;;;;;;-0.21;64.82;98796.92;3375595;86;29420;-63
2021/01/28 08:36:58;;;;;;;35.48;19.12;;;;;;;-0.16;65.91;98782.77;3357535;86;26416;-62
2021/01/28 08:42:08;;;;;;;19.67;13.40;;;;;;;-0.12;65.47;98769.61;3345005;86;26113;-62
2021/01/28 08:47:16;;;;;;;31.43;15.73;;;;;;;-0.08;65.80;98769.55;3358594;86;26795;-62
2021/01/28 08:52:19;;;;;;;33.00;15.78;;;;;;;-0.11;64.49;98760.25;3416451;84;26186;-63
2021/01/28 08:57:25;;;;;;;36.57;18.63;;;;;;;-0.03;66.36;98752.76;3390423;85;26607;-63
2021/01/28 09:02:35;;;;;;;30.63;19.30;;;;;;;0.00;64.81;98749.77;3372504;86;25956;-63
2021/01/28 09:07:54;;;;;;;34.27;20.67;;;;;;;-0.03;64.67;98735.73;3371148;87;26896;-62
2021/01/28 09:13:19;;;;;;;29.63;19.35;;;;;;;0.03;65.84;98734.94;3405137;85;26340;-61
2021/01/28 09:18:29;;;;;;;33.42;18.00;;;;;;;0.09;64.89;98730.25;3362163;85;27672;-62
2021/01/28 09:23:31;;;;;;;30.75;18.12;;;;;;;0.18;64.98;98722.55;3348662;87;29262;-62
2021/01/28 09:28:34;;;;;;;36.42;17.15;;;;;;;0.24;64.64;98713.12;3419160;86;28407;-63
2021/01/28 09:33:41;;;;;;;29.87;17.10;;;;;;;0.32;65.12;98692.78;3417770;86;26103;-63
2021/01/28 09:39:06;;;;;;;18.33;10.10;;;;;;;0.42;65.38;98678.51;3397209;86;26944;-66
2021/01/28 09:44:39;;;;;;;27.35;16.52;;;;;;;0.63;65.90;98687.56;3405933;85;29251;-63
2021/01/28 09:49:42;;;;;;;33.15;17.35;;;;;;;0.78;63.09;98676.42;3405928;86;29369;-63
2021/01/28 09:54:44;;;;;;;38.53;18.32;;;;;;;0.89;64.85;98667.98;3399599;86;30086;-65
2021/01/28 09:59:46;;;;;;;33.53;20.88;;;;;;;0.93;64.36;98656.06;3412564;85;29851;-63
2021/01/28 10:04:49;;;;;;;29.07;13.18;;;;;;;0.87;63.83;98647.70;3399766;85;30287;-63
2021/01/28 10:09:50;;;;;;;31.45;19.87;;;;;;;0.76;64.46;98643.53;3383014;86;30150;-63
2021/01/28 10:14:55;;;;;;;37.23;18.10;;;;;;;0.82;65.61;98636.98;3389939;85;30355;-64
2021/01/28 10:19:57;;;;;;;35.17;16.70;;;;;;;0.84;66.42;98636.29;3398977;84;29018;-63
2021/01/28 10:25:00;;;;;;;37.57;21.80;;;;;;;0.85;66.67;98625.30;3398475;86;27339;-63
2021/01/28 10:30:06;;;;;;;25.68;17.20;;;;;;;1.05;66.60;98625.30;3416568;84;30711;-63
2021/01/28 10:35:12;;;;;;;36.43;17.67;;;;;;;0.95;67.39;98623.88;3420340;84;25924;-66
2021/01/28 10:40:16;;;;;;;37.63;20.33;;;;;;;0.75;69.96;98612.55;3417673;85;35025;-63
2021/01/28 10:45:29;;;;;;;42.23;20.90;;;;;;;0.67;71.02;98603.55;3347044;86;26126;-72
2021/01/28 10:50:33;;;;;;;43.80;23.83;;;;;;;0.63;72.40;98591.34;3319834;87;27595;-67
2021/01/28 10:55:36;;;;;;;39.70;22.80;;;;;;;0.58;72.81;98590.34;3402633;84;27895;-66
2021/01/28 11:00:38;;;;;;;32.73;21.33;;;;;;;0.45;74.55;98587.67;3352957;86;26325;-64
2021/01/28 11:05:40;;;;;;;68.65;46.10;;;;;;;0.32;75.66;98581.38;3342886;86;27194;-67
2021/01/28 11:10:43;;;;;;;55.47;28.27;;;;;;;0.32;76.30;98576.64;3409830;84;28048;-65
2021/01/28 11:15:45;;;;;;;35.03;22.40;;;;;;;0.47;76.01;98568.63;3422489;84;26643;-67
2021/01/28 11:20:48;;;;;;;41.30;22.63;;;;;;;0.50;76.56;98560.36;3402495;85;26403;-65
2021/01/28 11:25:51;;;;;;;49.77;23.73;;;;;;;0.47;75.82;98548.45;3430407;84;26737;-66
2021/01/28 11:30:53;;;;;;;38.63;24.03;;;;;;;0.48;76.06;98538.78;3431361;85;26062;-64
2021/01/28 11:35:55;;;;;;;33.83;20.30;;;;;;;0.50;76.04;98527.59;3416833;85;26434;-65
2021/01/28 11:40:58;;;;;;;37.97;21.30;;;;;;;0.39;76.08;98532.91;3409780;85;26266;-67
2021/01/28 11:46:02;;;;;;;40.70;21.27;;;;;;;0.53;76.50;98521.45;3418141;85;25979;-64
2021/01/28 11:51:06;;;;;;;40.50;23.67;;;;;;;0.48;76.41;98512.06;3421996;84;26680;-63
2021/01/28 11:56:23;;;;;;;41.37;23.90;;;;;;;0.53;76.96;98511.46;3592239;80;34929;-65
2021/01/28 12:01:28;;;;;;;26.27;17.85;;;;;;;0.56;77.71;98504.51;3557690;81;29140;-65
2021/01/28 12:06:32;;;;;;;38.45;21.37;;;;;;;0.51;78.01;98497.74;3511342;82;30383;-69
2021/01/28 12:11:35;;;;;;;36.75;22.15;;;;;;;0.50;78.36;98491.69;3541452;80;28923;-67
2021/01/28 12:16:40;;;;;;;32.55;17.75;;;;;;;0.57;78.81;98482.53;3494634;82;30971;-67
2021/01/28 12:21:43;;;;;;;32.40;20.85;;;;;;;0.64;79.20;98476.25;3502331;82;30557;-65
2021/01/28 12:26:46;;;;;;;36.88;17.62;;;;;;;0.72;79.23;98466.58;3520379;82;29985;-64
2021/01/28 12:31:48;;;;;;;38.65;22.58;;;;;;;0.63;79.29;98466.77;3524509;83;29944;-63
2021/01/28 12:36:51;;;;;;;31.75;21.60;;;;;;;0.74;79.53;98458.81;3604692;80;28421;-66
2021/01/28 12:41:54;;;;;;;31.07;18.05;;;;;;;0.88;79.10;98460.93;3576830;80;30264;-64
2021/01/28 12:46:57;;;;;;;33.55;19.17;;;;;;;0.92;79.18;98451.11;3598504;80;30071;-67
2021/01/28 12:52:00;;;;;;;31.83;21.60;;;;;;;0.99;79.05;98443.23;3592294;80;26756;-63
2021/01/28 12:57:04;;;;;;;36.08;22.55;;;;;;;1.09;79.08;98431.81;3591133;80;27371;-69
2021/01/28 13:02:08;;;;;;;32.38;20.12;;;;;;;1.09;78.95;98431.01;3564054;80;28635;-68
2021/01/28 13:07:11;;;;;;;35.03;20.70;;;;;;;1.11;79.00;98419.80;3555067;80;27931;-68
2021/01/28 13:12:14;;;;;;;29.18;18.15;;;;;;;1.15;79.08;98409.20;3571963;80;28935;-66
2021/01/28 13:17:17;;;;;;;30.20;17.75;;;;;;;1.10;79.69;98399.31;3588320;80;30686;-67
2021/01/28 13:22:20;;;;;;;36.50;22.22;;;;;;;1.11;79.59;98410.62;3565737;80;30490;-67
2021/01/28 13:27:22;;;;;;;31.05;19.17;;;;;;;1.14;79.78;98411.52;3512521;82;29311;-66
2021/01/28 13:32:27;;;;;;;5.87;3.58;;;;;;;1.01;79.99;98409.72;3520213;81;30242;-67
2021/01/28 13:37:32;;;;;;;63.13;35.15;;;;;;;0.84;81.12;98396.25;3468191;83;26366;-67
2021/01/28 13:42:36;;;;;;;55.98;34.25;;;;;;;0.85;81.35;98387.38;3491954;83;30709;-68
2021/01/28 13:47:40;;;;;;;34.47;24.40;;;;;;;0.94;81.28;98373.51;3486692;83;26335;-68
2021/01/28 13:52:45;;;;;;;31.27;19.55;;;;;;;0.95;81.29;98365.94;3490051;82;30017;-67
2021/01/28 13:57:49;;;;;;;44.63;26.77;;;;;;;0.91;81.49;98349.83;3540478;82;30192;-68
2021/01/28 14:02:52;;;;;;;34.58;20.27;;;;;;;0.88;81.64;98358.11;3505764;82;30883;-69
2021/01/28 14:07:56;;;;;;;29.52;20.27;;;;;;;0.92;81.68;98323.05;3523322;81;29208;-72
2021/01/28 14:13:00;;;;;;;35.73;22.30;;;;;;;0.86;82.02;98315.53;3523404;81;27430;-68
2021/01/28 14:18:02;;;;;;;38.00;22.25;;;;;;;0.83;81.96;98330.38;3520491;82;28395;-68
2021/01/28 14:23:05;;;;;;;31.55;18.87;;;;;;;0.86;82.04;98329.96;3533062;82;30276;-64
2021/01/28 14:28:08;;;;;;;32.58;20.65;;;;;;;0.85;82.01;98327.04;3529928;82;29991;-69
2021/01/28 14:33:11;;;;;;;28.05;19.67;;;;;;;0.81;82.19;98324.52;3520821;82;30006;-72
2021/01/28 14:38:14;;;;;;;30.05;19.87;;;;;;;0.89;82.03;98318.25;3550205;82;30216;-72
2021/01/28 14:43:19;;;;;;;25.97;15.93;;;;;;;0.86;81.87;98329.16;3555119;82;25881;-68
2021/01/28 14:48:23;;;;;;;40.00;23.27;;;;;;;0.74;82.82;98318.99;3548127;82;30058;-68
2021/01/28 14:53:26;;;;;;;24.32;17.70;;;;;;;0.87;82.17;98311.90;3563521;82;30159;-66
2021/01/28 14:58:30;;;;;;;35.05;21.35;;;;;;;0.87;82.33;98309.28;3512556;82;30315;-67
2021/01/28 15:03:34;;;;;;;31.97;21.42;;;;;;;0.90;82.23;98289.19;3541772;82;28822;-65
2021/01/28 15:08:36;;;;;;;35.07;19.50;;;;;;;0.91;82.22;98276.88;3547869;82;25947;-65
2021/01/28 15:13:41;;;;;;;37.13;20.67;;;;;;;0.92;82.17;98284.51;3521265;82;26477;-68
2021/01/28 15:18:47;;;;;;;24.52;16.35;;;;;;;0.93;82.29;98274.82;3519721;82;30378;-69
2021/01/28 15:23:50;;;;;;;34.03;20.90;;;;;;;0.86;82.69;98276.69;3550405;82;26691;-65
2021/01/28 15:28:53;;;;;;;28.47;18.23;;;;;;;0.94;82.44;98261.50;3514160;82;30091;-68
2021/01/28 15:33:57;;;;;;;29.87;17.45;;;;;;;0.97;82.54;98257.66;3541022;82;30610;-70
2021/01/28 15:39:00;;;;;;;34.03;19.70;;;;;;;0.88;82.90;98258.92;3518939;82;28790;-69
2021/01/28 15:44:03;;;;;;;28.27;18.27;;;;;;;0.89;82.80;98261.34;3535546;82;30145;-67
2021/01/28 15:49:06;;;;;;;28.25;17.85;;;;;;;0.91;82.93;98261.14;3525186;82;30465;-68
2021/01/28 15:54:13;;;;;;;31.65;21.10;;;;;;;0.87;83.05;98254.19;3549307;81;29308;-67
2021/01/28 15:59:19;;;;;;;35.28;24.57;;;;;;;0.85;83.46;98254.09;3524044;82;26390;-63
2021/01/28 16:04:22;;;;;;;32.00;20.90;;;;;;;0.87;83.34;98252.07;3527569;82;29116;-64
2021/01/28 16:09:26;;;;;;;30.65;20.60;;;;;;;0.85;83.55;98252.78;3516796;82;28276;-65
2021/01/28 16:14:31;;;;;;;39.60;24.20;;;;;;;0.83;83.62;98256.12;3529502;82;30114;-64
2021/01/28 16:19:34;;;;;;;30.68;20.43;;;;;;;0.82;83.81;98254.00;3526674;82;28851;-65
2021/01/28 16:24:40;;;;;;;37.80;23.77;;;;;;;0.93;83.43;98250.70;3486116;82;27414;-64
2021/01/28 16:29:43;;;;;;;34.75;22.25;;;;;;;0.93;83.40;98246.77;3495395;82;29995;-65
2021/01/28 16:34:46;;;;;;;41.13;22.75;;;;;;;0.86;83.83;98241.28;3506921;82;26467;-64
2021/01/28 16:39:49;;;;;;;33.92;21.25;;;;;;;0.92;83.59;98237.28;3505937;82;28175;-64
2021/01/28 16:44:54;;;;;;;37.00;23.77;;;;;;;0.87;83.70;98238.45;3520243;82;29399;-65
2021/01/28 16:49:58;;;;;;;34.88;22.67;;;;;;;0.86;83.73;98242.59;3509277;82;30656;-64
2021/01/28 16:55:01;;;;;;;35.08;22.10;;;;;;;0.88;83.79;98240.56;3519081;82;30147;-66
2021/01/28 17:00:09;;;;;;;36.53;23.90;;;;;;;0.88;83.74;98242.68;3512778;82;28980;-64
2021/01/28 17:05:15;;;;;;;39.92;23.80;;;;;;;0.87;84.07;98243.69;3527406;82;31582;-65
2021/01/28 17:10:20;;;;;;;40.28;24.95;;;;;;;0.91;84.07;98244.09;3519927;82;27428;-67
2021/01/28 17:15:26;;;;;;;34.05;21.20;;;;;;;0.96;83.76;98248.98;3530940;82;28875;-65
2021/01/28 17:20:33;;;;;;;36.93;23.60;;;;;;;0.95;83.94;98247.37;3483410;82;28444;-66
2021/01/28 17:25:37;;;;;;;48.47;28.60;;;;;;;0.95;84.21;98249.19;3493771;81;26456;-63
2021/01/28 17:30:40;;;;;;;40.75;25.92;;;;;;;0.94;84.12;98249.69;3485608;82;27496;-65
2021/01/28 17:35:47;;;;;;;42.17;21.57;;;;;;;0.95;83.88;98243.94;3484581;82;30675;-63
2021/01/28 17:40:48;;;;;;;74.75;44.53;;;;;;;0.89;83.96;98245.61;3492518;82;30057;-63
2021/01/28 17:51:05;;;;;;;44.60;26.70;;;;;;;0.88;83.82;98244.50;3586320;78;34755;-66
2021/01/28 17:56:07;;;;;;;39.20;22.35;;;;;;;0.80;84.14;98238.17;3571219;80;30675;-66
2021/01/28 18:01:12;;;;;;;46.73;24.12;;;;;;;0.79;83.82;98232.63;3537063;79;29184;-64
2021/01/28 18:06:17;;;;;;;39.18;21.77;;;;;;;0.79;83.78;98236.05;3607709;80;30039;-65
2021/01/28 18:11:24;;;;;;;42.33;26.77;;;;;;;0.85;83.58;98229.98;3622779;79;30075;-67
2021/01/28 18:16:28;;;;;;;47.40;24.65;;;;;;;0.88;83.37;98228.25;3620602;80;30053;-66
2021/01/28 18:21:33;;;;;;;41.98;24.95;;;;;;;0.82;83.34;98229.59;3636188;78;30129;-66
2021/01/28 18:26:37;;;;;;;39.15;23.73;;;;;;;0.83;83.11;98230.69;3632123;79;30216;-64
2021/01/28 18:31:39;;;;;;;39.60;24.65;;;;;;;0.75;83.16;98224.87;3635965;79;30604;-65
2021/01/28 18:36:41;;;;;;;43.55;24.98;;;;;;;0.67;83.12;98221.97;3637678;79;30562;-64
2021/01/28 18:41:45;;;;;;;43.97;24.07;;;;;;;0.71;83.02;98228.92;3663743;79;26168;-68
2021/01/28 18:46:48;;;;;;;44.05;23.55;;;;;;;0.70;83.00;98225.49;3645133;79;29982;-64
2021/01/28 18:51:53;;;;;;;45.17;25.13;;;;;;;0.58;83.56;98232.42;3569418;81;27353;-68
2021/01/28 18:56:55;;;;;;;37.80;21.63;;;;;;;0.53;83.86;98231.72;3640423;79;26924;-69
2021/01/28 19:02:00;;;;;;;42.53;24.27;;;;;;;0.56;83.55;98227.38;3622803;79;26355;-66
2021/01/28 19:07:03;;;;;;;42.60;26.12;;;;;;;0.53;83.69;98229.09;3609614;79;28668;-69
2021/01/28 19:12:07;;;;;;;39.90;21.80;;;;;;;0.54;83.16;98233.84;3598283;79;27795;-65
2021/01/28 19:17:11;;;;;;;38.08;20.32;;;;;;;0.60;82.13;98231.20;3644323;79;28415;-70
2021/01/28 19:22:15;;;;;;;37.00;22.63;;;;;;;0.56;81.75;98239.18;3621991;79;26195;-70
2021/01/28 19:27:19;;;;;;;52.60;27.10;;;;;;;0.52;81.99;98235.86;3639870;79;30135;-69
2021/01/28 19:32:25;;;;;;;46.98;25.57;;;;;;;0.53;81.35;98226.98;3637021;79;30620;-67
2021/01/28 19:37:30;;;;;;;47.73;25.12;;;;;;;0.45;81.54;98225.89;3645875;79;30702;-66
2021/01/28 19:42:33;;;;;;;49.13;28.83;;;;;;;0.36;81.03;98230.55;3638895;79;30188;-67
2021/01/28 19:47:38;;;;;;;45.67;25.90;;;;;;;0.31;80.93;98231.16;3637384;79;29427;-67
2021/01/28 19:52:42;;;;;;;48.75;27.93;;;;;;;0.15;81.39;98235.55;3655381;79;30218;-66
2021/01/28 19:57:47;;;;;;;38.70;21.45;;;;;;;0.04;81.33;98232.73;3651079;79;27458;-67
2021/01/28 20:02:54;;;;;;;52.00;23.35;;;;;;;-0.07;81.41;98227.13;3651354;79;30183;-65
2021/01/28 20:07:58;;;;;;;41.20;23.83;;;;;;;-0.19;81.29;98235.78;3661950;79;34954;-65
2021/01/28 20:13:02;;;;;;;41.33;23.92;;;;;;;-0.17;81.98;98245.55;3641924;79;30161;-66
2021/01/28 20:18:07;;;;;;;39.48;21.77;;;;;;;-0.18;81.46;98237.39;3658986;79;30200;-64
2021/01/28 20:23:13;;;;;;;40.12;20.88;;;;;;;-0.14;81.11;98235.98;3614355;79;29272;-65
2021/01/28 20:28:18;;;;;;;31.95;17.17;;;;;;;-0.25;79.83;98247.06;3623804;79;28774;-65
2021/01/28 20:33:23;;;;;;;29.65;15.48;;;;;;;-0.31;78.75;98247.89;3611877;79;30613;-66
2021/01/28 20:38:25;;;;;;;28.12;15.78;;;;;;;-0.37;79.46;98242.95;3618573;79;30667;-69
2021/01/28 20:43:28;;;;;;;21.12;12.95;;;;;;;-0.36;79.29;98244.06;3612891;79;30062;-70
2021/01/28 20:48:31;;;;;;;21.30;13.10;;;;;;;-0.37;79.53;98247.69;3591368;79;29569;-68
2021/01/28 20:53:34;;;;;;;20.75;14.10;;;;;;;-0.45;77.80;98262.77;3607886;79;27650;-68
2021/01/28 20:58:38;;;;;;;24.65;13.13;;;;;;;-0.54;78.37;98262.15;3631100;79;26167;-68
2021/01/28 21:03:41;;;;;;;23.50;13.83;;;;;;;-0.57;77.35;98265.16;3644929;79;25860;-68
2021/01/28 21:08:45;;;;;;;25.80;16.10;;;;;;;-0.65;76.77;98267.99;3663062;79;28804;-68
2021/01/28 21:13:49;;;;;;;25.70;13.30;;;;;;;-0.71;77.27;98269.59;3655155;78;28954;-67
2021/01/28 21:18:53;;;;;;;25.93;15.20;;;;;;;-0.83;76.97;98274.27;3654037;79;26001;-66
2021/01/28 21:23:59;;;;;;;30.23;12.60;;;;;;;-0.94;77.05;98274.37;3621224;80;26624;-66
2021/01/28 21:29:03;;;;;;;26.23;16.50;;;;;;;-1.07;77.19;98272.50;3608003;80;27272;-68
2021/01/28 21:34:07;;;;;;;28.47;14.07;;;;;;;-1.14;77.37;98266.44;3613828;80;30624;-64
2021/01/28 21:39:10;;;;;;;29.67;18.95;;;;;;;-1.20;77.78;98263.78;3664277;79;25914;-65
2021/01/28 21:44:12;;;;;;;19.30;12.63;;;;;;;-1.28;77.02;98267.40;3645840;79;25940;-70
2021/01/28 21:49:14;;;;;;;20.10;12.65;;;;;;;-1.31;76.76;98270.40;3640094;79;27331;-68
2021/01/28 21:54:17;;;;;;;28.05;15.23;;;;;;;-1.43;75.73;98269.33;3607746;80;29242;-68
2021/01/28 21:59:21;;;;;;;21.33;10.95;;;;;;;-1.50;76.24;98271.09;3614816;80;28243;-69
2021/01/28 22:04:23;;;;;;;30.08;14.85;;;;;;;-1.60;76.42;98262.82;3602290;80;26834;-68
2021/01/28 22:09:27;;;;;;;27.25;12.45;;;;;;;-1.67;76.65;98262.78;3624893;80;25960;-68
2021/01/28 22:14:30;;;;;;;21.23;10.73;;;;;;;-1.78;76.25;98262.80;3613695;80;26605;-65
2021/01/28 22:19:33;;;;;;;19.20;10.57;;;;;;;-1.89;77.21;98263.36;3614650;80;25900;-64
2021/01/28 22:24:36;;;;;;;20.48;11.60;;;;;;;-2.02;77.15;98259.34;3628695;80;25891;-63
2021/01/28 22:29:38;;;;;;;26.70;14.15;;;;;;;-2.10;77.18;98264.20;3573772;81;28776;-69
2021/01/28 22:34:41;;;;;;;22.98;12.25;;;;;;;-2.25;77.88;98269.21;3644291;79;30678;-64
2021/01/28 22:39:44;;;;;;;21.48;10.28;;;;;;;-2.27;77.00;98262.87;3642579;79;30450;-68
2021/01/28 22:44:47;;;;;;;21.65;9.23;;;;;;;-2.33;76.80;98262.81;3627145;80;30080;-68
2021/01/28 22:49:49;;;;;;;32.17;14.87;;;;;;;-2.42;77.29;98259.52;3628400;79;26821;-64
2021/01/28 22:54:52;;;;;;;17.60;10.10;;;;;;;-2.48;77.43;98267.62;3654848;79;30226;-65
2021/01/28 22:59:55;;;;;;;24.90;14.20;;;;;;;-2.54;77.79;98261.04;3656315;79;30620;-67
2021/01/28 23:04:59;;;;;;;22.57;10.83;;;;;;;-2.58;78.10;98268.42;3651522;79;25939;-70
2021/01/28 23:10:05;;;;;;;22.97;9.60;;;;;;;-2.59;77.48;98265.51;3643375;79;26503;-63
2021/01/28 23:15:13;;;;;;;22.60;10.93;;;;;;;-2.61;77.56;98270.10;3650788;79;26305;-66
2021/01/28 23:20:19;;;;;;;20.67;11.10;;;;;;;-2.65;77.29;98278.48;3646985;79;26166;-69
2021/01/28 23:25:26;;;;;;;19.60;9.77;;;;;;;-2.75;77.64;98288.72;3665709;79;25905;-70
2021/01/28 23:30:31;;;;;;;19.65;12.70;;;;;;;-2.78;77.42;98285.70;3656498;79;27270;-66
2021/01/28 23:35:38;;;;;;;28.40;15.00;;;;;;;-2.84;77.74;98280.72;3644175;79;30513;-65
2021/01/28 23:40:41;;;;;;;28.70;13.00;;;;;;;-2.88;77.93;98278.16;3651626;79;25912;-64
2021/01/28 23:45:45;;;;;;;60.20;24.55;;;;;;;-2.90;78.17;98274.12;3653848;79;26572;-65